sensor_id;sensor_type;location;lat;lon;timestamp;pressure;altitude;pressure_sealevel;temperature;humidity
14790;BME280;7486;51.010;10.366;2024-02-04T00:01:39;98571.50;;;3.86;97.84
14790;BME280;7486;51.010;10.366;2024-02-04T00:04:25;98602.53;;;3.98;97.67
14790;BME280;7486;51.010;10.366;2024-02-04T00:07:11;98796.53;;;5.19;97.60
14790;BME280;7486;51.010;10.366;2024-02-04T00:09:58;98487.38;;;3.37;97.84
14790;BME280;7486;51.010;10.366;2024-02-04T00:12:43;98753.03;;;4.91;97.27
14790;BME280;7486;51.010;10.366;2024-02-04T00:15:30;98808.88;;;5.35;96.58
14790;BME280;7486;51.010;10.366;2024-02-04T00:18:16;98815.66;;;5.45;96.70
14790;BME280;7486;51.010;10.366;2024-02-04T00:21:02;98522.84;;;3.57;96.81
14790;BME280;7486;51.010;10.366;2024-02-04T00:23:48;98716.66;;;4.62;97.32
14790;BME280;7486;51.010;10.366;2024-02-04T00:26:33;98783.81;;;5.06;96.95
14790;BME280;7486;51.010;10.366;2024-02-04T00:29:19;98572.72;;;3.99;96.02
14790;BME280;7486;51.010;10.366;2024-02-04T00:32:05;98233.69;;;1.81;97.42
14790;BME280;7486;51.010;10.366;2024-02-04T00:34:55;98419.13;;;3.13;96.07
14790;BME280;7486;51.010;10.366;2024-02-04T00:37:40;98755.16;;;5.21;95.83
14790;BME280;7486;51.010;10.366;2024-02-04T00:40:26;98493.13;;;3.41;96.68
14790;BME280;7486;51.010;10.366;2024-02-04T00:43:12;98722.94;;;4.77;96.52
14790;BME280;7486;51.010;10.366;2024-02-04T00:45:58;98728.97;;;4.69;97.90
14790;BME280;7486;51.010;10.366;2024-02-04T00:48:44;98630.88;;;4.29;97.78
14790;BME280;7486;51.010;10.366;2024-02-04T00:51:30;98777.19;;;5.28;96.39
14790;BME280;7486;51.010;10.366;2024-02-04T00:54:15;98731.19;;;4.90;97.14
14790;BME280;7486;51.010;10.366;2024-02-04T00:57:01;98461.97;;;3.12;98.25
14790;BME280;7486;51.010;10.366;2024-02-04T00:59:47;98760.97;;;5.07;97.92
14790;BME280;7486;51.010;10.366;2024-02-04T01:02:33;98409.84;;;2.93;96.39
14790;BME280;7486;51.010;10.366;2024-02-04T01:05:19;98700.66;;;4.81;96.83
14790;BME280;7486;51.010;10.366;2024-02-04T01:08:07;98761.59;;;5.27;97.08
14790;BME280;7486;51.010;10.366;2024-02-04T01:10:53;98720.56;;;4.92;96.57
14790;BME280;7486;51.010;10.366;2024-02-04T01:13:39;98731.00;;;5.17;97.22
14790;BME280;7486;51.010;10.366;2024-02-04T01:16:25;98759.28;;;5.24;97.07
14790;BME280;7486;51.010;10.366;2024-02-04T01:19:11;98752.06;;;5.26;97.64
14790;BME280;7486;51.010;10.366;2024-02-04T01:21:57;98682.31;;;4.89;96.90
14790;BME280;7486;51.010;10.366;2024-02-04T01:24:43;98520.38;;;3.82;97.10
14790;BME280;7486;51.010;10.366;2024-02-04T01:27:29;98755.34;;;5.28;97.14
14790;BME280;7486;51.010;10.366;2024-02-04T01:30:15;98697.34;;;4.71;97.62
14790;BME280;7486;51.010;10.366;2024-02-04T01:33:01;98741.09;;;4.96;98.46
14790;BME280;7486;51.010;10.366;2024-02-04T01:35:47;98712.19;;;4.88;98.28
14790;BME280;7486;51.010;10.366;2024-02-04T01:38:33;98598.31;;;4.39;97.05
14790;BME280;7486;51.010;10.366;2024-02-04T01:41:19;98544.16;;;3.88;96.94
14790;BME280;7486;51.010;10.366;2024-02-04T01:44:04;98719.44;;;5.02;97.58
14790;BME280;7486;51.010;10.366;2024-02-04T01:46:50;98735.94;;;5.21;97.54
14790;BME280;7486;51.010;10.366;2024-02-04T01:49:37;98692.00;;;4.97;97.57
14790;BME280;7486;51.010;10.366;2024-02-04T01:52:23;98710.78;;;5.10;97.81
14790;BME280;7486;51.010;10.366;2024-02-04T01:55:09;98543.66;;;3.85;97.23
14790;BME280;7486;51.010;10.366;2024-02-04T01:57:55;98752.38;;;5.23;97.69
14790;BME280;7486;51.010;10.366;2024-02-04T02:00:41;98618.91;;;4.26;98.58
14790;BME280;7486;51.010;10.366;2024-02-04T02:03:28;98449.00;;;3.46;98.00
14790;BME280;7486;51.010;10.366;2024-02-04T02:06:16;98716.69;;;5.12;96.43
14790;BME280;7486;51.010;10.366;2024-02-04T02:09:02;98736.34;;;5.42;96.19
14790;BME280;7486;51.010;10.366;2024-02-04T02:12:00;98700.03;;;4.87;96.71
14790;BME280;7486;51.010;10.366;2024-02-04T02:14:52;98768.69;;;5.34;96.57
14790;BME280;7486;51.010;10.366;2024-02-04T02:17:50;98716.00;;;5.02;96.27
14790;BME280;7486;51.010;10.366;2024-02-04T02:24:11;98762.47;;;5.51;94.87
14790;BME280;7486;51.010;10.366;2024-02-04T02:26:57;98735.47;;;5.25;94.91
14790;BME280;7486;51.010;10.366;2024-02-04T02:29:43;98661.56;;;4.70;95.29
14790;BME280;7486;51.010;10.366;2024-02-04T02:32:29;98723.63;;;5.21;95.97
14790;BME280;7486;51.010;10.366;2024-02-04T02:35:16;98750.19;;;5.60;94.89
14790;BME280;7486;51.010;10.366;2024-02-04T02:38:07;98750.31;;;5.58;94.55
14790;BME280;7486;51.010;10.366;2024-02-04T02:40:59;98755.25;;;5.53;95.06
14790;BME280;7486;51.010;10.366;2024-02-04T02:43:51;98748.69;;;5.49;94.57
14790;BME280;7486;51.010;10.366;2024-02-04T02:46:38;98651.00;;;5.04;94.75
14790;BME280;7486;51.010;10.366;2024-02-04T02:49:24;98683.44;;;5.29;93.98
14790;BME280;7486;51.010;10.366;2024-02-04T02:52:10;98581.34;;;4.59;94.86
14790;BME280;7486;51.010;10.366;2024-02-04T02:54:56;98720.44;;;5.43;94.93
14790;BME280;7486;51.010;10.366;2024-02-04T02:57:41;98665.78;;;5.05;95.15
14790;BME280;7486;51.010;10.366;2024-02-04T03:00:27;98639.69;;;4.95;95.12
14790;BME280;7486;51.010;10.366;2024-02-04T03:03:12;98451.00;;;3.60;95.05
14790;BME280;7486;51.010;10.366;2024-02-04T03:05:58;98719.78;;;5.49;95.54
14790;BME280;7486;51.010;10.366;2024-02-04T03:08:44;98638.50;;;4.90;95.83
14790;BME280;7486;51.010;10.366;2024-02-04T03:11:30;98571.44;;;4.45;95.38
14790;BME280;7486;51.010;10.366;2024-02-04T03:14:16;98730.22;;;5.25;96.93
14790;BME280;7486;51.010;10.366;2024-02-04T03:17:02;98651.00;;;4.96;95.87
14790;BME280;7486;51.010;10.366;2024-02-04T03:19:48;98731.75;;;5.44;95.61
14790;BME280;7486;51.010;10.366;2024-02-04T03:22:36;98610.88;;;4.69;96.15
14790;BME280;7486;51.010;10.366;2024-02-04T03:25:22;98597.59;;;4.63;96.34
14790;BME280;7486;51.010;10.366;2024-02-04T03:28:08;98596.47;;;4.65;96.86
14790;BME280;7486;51.010;10.366;2024-02-04T03:30:53;98629.06;;;4.63;97.33
14790;BME280;7486;51.010;10.366;2024-02-04T03:33:40;98723.34;;;5.32;97.93
14790;BME280;7486;51.010;10.366;2024-02-04T03:36:27;98732.75;;;5.51;97.94
14790;BME280;7486;51.010;10.366;2024-02-04T03:39:13;98707.13;;;5.37;97.02
14790;BME280;7486;51.010;10.366;2024-02-04T03:41:59;98619.44;;;4.72;98.04
14790;BME280;7486;51.010;10.366;2024-02-04T03:44:46;98726.81;;;5.33;98.98
14790;BME280;7486;51.010;10.366;2024-02-04T03:47:32;98696.38;;;5.14;99.43
14790;BME280;7486;51.010;10.366;2024-02-04T03:50:18;98672.06;;;5.12;98.70
14790;BME280;7486;51.010;10.366;2024-02-04T03:53:04;98734.56;;;5.50;98.63
14790;BME280;7486;51.010;10.366;2024-02-04T03:55:49;98661.84;;;4.93;99.28
14790;BME280;7486;51.010;10.366;2024-02-04T03:58:35;98640.81;;;4.85;100.00
14790;BME280;7486;51.010;10.366;2024-02-04T04:01:21;98601.41;;;4.68;99.64
14790;BME280;7486;51.010;10.366;2024-02-04T04:04:06;98665.47;;;5.00;100.00
14790;BME280;7486;51.010;10.366;2024-02-04T04:06:53;98717.09;;;5.25;100.00
14790;BME280;7486;51.010;10.366;2024-02-04T04:09:40;98649.03;;;4.98;99.70
14790;BME280;7486;51.010;10.366;2024-02-04T04:12:25;98625.69;;;4.79;100.00
14790;BME280;7486;51.010;10.366;2024-02-04T04:15:12;98680.31;;;5.17;99.42
14790;BME280;7486;51.010;10.366;2024-02-04T04:17:58;98402.00;;;3.44;99.78
14790;BME280;7486;51.010;10.366;2024-02-04T04:20:44;98291.97;;;2.69;99.82
14790;BME280;7486;51.010;10.366;2024-02-04T04:23:30;98400.31;;;3.35;100.00
14790;BME280;7486;51.010;10.366;2024-02-04T04:26:15;98669.56;;;5.02;100.00
14790;BME280;7486;51.010;10.366;2024-02-04T04:29:01;98659.91;;;5.11;99.37
14790;BME280;7486;51.010;10.366;2024-02-04T04:31:47;98704.28;;;5.22;100.00
14790;BME280;7486;51.010;10.366;2024-02-04T04:34:33;98625.34;;;4.74;99.62
14790;BME280;7486;51.010;10.366;2024-02-04T04:37:19;98664.78;;;4.98;100.00
14790;BME280;7486;51.010;10.366;2024-02-04T04:40:06;98657.09;;;5.04;99.99
14790;BME280;7486;51.010;10.366;2024-02-04T04:42:53;98683.91;;;5.16;100.00
14790;BME280;7486;51.010;10.366;2024-02-04T04:45:40;98402.56;;;3.56;99.46
14790;BME280;7486;51.010;10.366;2024-02-04T04:48:25;98668.38;;;5.31;99.02
14790;BME280;7486;51.010;10.366;2024-02-04T04:51:12;98686.91;;;5.45;98.51
14790;BME280;7486;51.010;10.366;2024-02-04T04:53:57;98643.41;;;5.27;98.71
14790;BME280;7486;51.010;10.366;2024-02-04T04:56:43;98683.63;;;5.35;98.24
14790;BME280;7486;51.010;10.366;2024-02-04T04:59:29;98682.78;;;5.27;98.91
14790;BME280;7486;51.010;10.366;2024-02-04T05:02:16;98697.81;;;5.08;100.00
14790;BME280;7486;51.010;10.366;2024-02-04T05:05:03;98674.63;;;4.96;100.00
14790;BME280;7486;51.010;10.366;2024-02-04T05:07:49;98650.94;;;4.80;100.00
14790;BME280;7486;51.010;10.366;2024-02-04T05:10:35;98551.84;;;4.57;99.92
14790;BME280;7486;51.010;10.366;2024-02-04T05:13:21;98675.09;;;5.41;98.33
14790;BME280;7486;51.010;10.366;2024-02-04T05:16:07;98684.56;;;5.18;98.93
14790;BME280;7486;51.010;10.366;2024-02-04T05:18:52;98663.59;;;5.26;99.42
14790;BME280;7486;51.010;10.366;2024-02-04T05:21:39;98604.88;;;4.93;99.43
14790;BME280;7486;51.010;10.366;2024-02-04T05:24:25;98663.75;;;5.33;98.58
14790;BME280;7486;51.010;10.366;2024-02-04T05:27:10;98665.53;;;5.24;99.17
14790;BME280;7486;51.010;10.366;2024-02-04T05:29:56;98661.28;;;5.23;99.45
14790;BME280;7486;51.010;10.366;2024-02-04T05:32:41;98672.91;;;5.21;99.73
14790;BME280;7486;51.010;10.366;2024-02-04T05:35:27;98663.75;;;5.33;99.18
14790;BME280;7486;51.010;10.366;2024-02-04T05:38:13;98656.34;;;5.28;98.72
14790;BME280;7486;51.010;10.366;2024-02-04T05:40:58;98571.34;;;4.63;99.42
14790;BME280;7486;51.010;10.366;2024-02-04T05:43:44;98574.84;;;4.72;99.92
14790;BME280;7486;51.010;10.366;2024-02-04T05:46:29;98660.59;;;5.21;99.43
14790;BME280;7486;51.010;10.366;2024-02-04T05:49:16;98579.78;;;4.91;98.88
14790;BME280;7486;51.010;10.366;2024-02-04T05:52:01;98668.03;;;5.42;98.82
14790;BME280;7486;51.010;10.366;2024-02-04T05:54:47;98665.88;;;5.29;98.89
14790;BME280;7486;51.010;10.366;2024-02-04T05:57:32;98665.91;;;5.37;99.19
14790;BME280;7486;51.010;10.366;2024-02-04T06:00:18;98677.09;;;5.47;98.73
14790;BME280;7486;51.010;10.366;2024-02-04T06:03:04;98678.28;;;5.11;100.00
14790;BME280;7486;51.010;10.366;2024-02-04T06:05:50;98679.78;;;5.13;100.00
14790;BME280;7486;51.010;10.366;2024-02-04T06:08:35;98690.16;;;5.15;100.00
14790;BME280;7486;51.010;10.366;2024-02-04T06:11:21;98700.72;;;5.39;99.90
14790;BME280;7486;51.010;10.366;2024-02-04T06:14:06;98691.53;;;5.43;99.32
14790;BME280;7486;51.010;10.366;2024-02-04T06:16:52;98698.03;;;5.15;100.00
14790;BME280;7486;51.010;10.366;2024-02-04T06:19:38;98708.72;;;5.38;100.00
14790;BME280;7486;51.010;10.366;2024-02-04T06:22:23;98691.47;;;5.19;100.00
14790;BME280;7486;51.010;10.366;2024-02-04T06:25:09;98693.13;;;5.28;100.00
14790;BME280;7486;51.010;10.366;2024-02-04T06:27:55;98682.34;;;5.47;100.00
14790;BME280;7486;51.010;10.366;2024-02-04T06:30:40;98689.53;;;5.29;100.00
14790;BME280;7486;51.010;10.366;2024-02-04T06:33:26;98677.38;;;5.20;100.00
14790;BME280;7486;51.010;10.366;2024-02-04T06:36:12;98695.03;;;5.10;100.00
14790;BME280;7486;51.010;10.366;2024-02-04T06:38:57;98680.00;;;5.20;100.00
14790;BME280;7486;51.010;10.366;2024-02-04T06:41:43;98672.66;;;5.56;100.00
14790;BME280;7486;51.010;10.366;2024-02-04T06:44:28;98657.06;;;5.54;99.81
14790;BME280;7486;51.010;10.366;2024-02-04T06:47:15;98669.19;;;5.39;100.00
14790;BME280;7486;51.010;10.366;2024-02-04T06:50:00;98671.16;;;5.45;100.00
14790;BME280;7486;51.010;10.366;2024-02-04T06:52:46;98610.19;;;5.09;100.00
14790;BME280;7486;51.010;10.366;2024-02-04T06:55:32;98647.50;;;5.29;100.00
14790;BME280;7486;51.010;10.366;2024-02-04T06:58:20;98648.66;;;5.43;100.00
14790;BME280;7486;51.010;10.366;2024-02-04T07:01:05;98659.00;;;5.36;99.94
14790;BME280;7486;51.010;10.366;2024-02-04T07:03:51;98662.44;;;5.45;100.00
14790;BME280;7486;51.010;10.366;2024-02-04T07:06:38;98667.56;;;5.54;99.42
14790;BME280;7486;51.010;10.366;2024-02-04T07:09:23;98685.31;;;5.60;98.53
14790;BME280;7486;51.010;10.366;2024-02-04T07:12:09;98694.13;;;5.35;99.36
14790;BME280;7486;51.010;10.366;2024-02-04T07:14:54;98692.50;;;5.34;99.74
14790;BME280;7486;51.010;10.366;2024-02-04T07:17:39;98677.38;;;5.20;100.00
14790;BME280;7486;51.010;10.366;2024-02-04T07:20:25;98688.72;;;5.45;100.00
14790;BME280;7486;51.010;10.366;2024-02-04T07:23:10;98677.22;;;5.38;100.00
14790;BME280;7486;51.010;10.366;2024-02-04T07:25:55;98667.06;;;5.59;99.67
14790;BME280;7486;51.010;10.366;2024-02-04T07:28:41;98650.31;;;5.60;99.47
14790;BME280;7486;51.010;10.366;2024-02-04T07:31:27;98628.31;;;5.53;99.36
14790;BME280;7486;51.010;10.366;2024-02-04T07:34:12;98635.69;;;5.41;99.91
14790;BME280;7486;51.010;10.366;2024-02-04T07:36:58;98643.59;;;5.49;100.00
14790;BME280;7486;51.010;10.366;2024-02-04T07:39:44;98642.78;;;5.57;100.00
14790;BME280;7486;51.010;10.366;2024-02-04T07:42:29;98647.53;;;5.53;100.00
14790;BME280;7486;51.010;10.366;2024-02-04T07:45:15;98641.31;;;5.54;100.00
14790;BME280;7486;51.010;10.366;2024-02-04T07:48:02;98644.72;;;5.47;100.00
14790;BME280;7486;51.010;10.366;2024-02-04T07:50:48;98659.00;;;5.52;100.00
14790;BME280;7486;51.010;10.366;2024-02-04T07:53:36;98664.94;;;5.46;100.00
14790;BME280;7486;51.010;10.366;2024-02-04T07:56:22;98611.72;;;5.28;100.00
14790;BME280;7486;51.010;10.366;2024-02-04T07:59:07;98605.97;;;5.33;100.00
14790;BME280;7486;51.010;10.366;2024-02-04T08:01:54;98626.69;;;5.44;100.00
14790;BME280;7486;51.010;10.366;2024-02-04T08:04:40;98646.84;;;5.51;100.00
14790;BME280;7486;51.010;10.366;2024-02-04T08:07:26;98635.38;;;5.44;100.00
14790;BME280;7486;51.010;10.366;2024-02-04T08:10:12;98624.53;;;5.55;100.00
14790;BME280;7486;51.010;10.366;2024-02-04T08:12:57;98631.75;;;5.45;100.00
14790;BME280;7486;51.010;10.366;2024-02-04T08:15:43;98622.22;;;5.52;100.00
14790;BME280;7486;51.010;10.366;2024-02-04T08:18:29;98605.97;;;5.49;100.00
14790;BME280;7486;51.010;10.366;2024-02-04T08:21:17;98620.56;;;5.51;100.00
14790;BME280;7486;51.010;10.366;2024-02-04T08:24:02;98637.16;;;5.52;99.65
14790;BME280;7486;51.010;10.366;2024-02-04T08:26:48;98636.38;;;5.67;99.25
14790;BME280;7486;51.010;10.366;2024-02-04T08:29:34;98626.84;;;5.66;97.89
14790;BME280;7486;51.010;10.366;2024-02-04T08:32:19;98631.28;;;5.58;97.75
14790;BME280;7486;51.010;10.366;2024-02-04T08:35:05;98585.47;;;5.36;97.63
14790;BME280;7486;51.010;10.366;2024-02-04T08:37:51;98633.25;;;5.56;97.25
14790;BME280;7486;51.010;10.366;2024-02-04T08:40:37;98638.84;;;5.61;96.94
14790;BME280;7486;51.010;10.366;2024-02-04T08:43:22;98635.06;;;5.72;95.37
14790;BME280;7486;51.010;10.366;2024-02-04T08:46:08;98635.06;;;5.72;93.82
14790;BME280;7486;51.010;10.366;2024-02-04T08:48:58;98642.44;;;5.84;93.47
14790;BME280;7486;51.010;10.366;2024-02-04T08:51:43;98629.78;;;5.80;93.16
14790;BME280;7486;51.010;10.366;2024-02-04T08:54:29;98647.53;;;5.78;93.94
14790;BME280;7486;51.010;10.366;2024-02-04T08:57:15;98624.84;;;5.93;93.03
14790;BME280;7486;51.010;10.366;2024-02-04T09:00:00;98618.25;;;6.05;90.76
14790;BME280;7486;51.010;10.366;2024-02-04T09:02:46;98618.28;;;5.89;90.81
14790;BME280;7486;51.010;10.366;2024-02-04T09:05:31;98588.25;;;5.67;91.07
14790;BME280;7486;51.010;10.366;2024-02-04T09:08:17;98593.97;;;5.87;90.44
14790;BME280;7486;51.010;10.366;2024-02-04T09:11:02;98624.16;;;6.15;90.15
14790;BME280;7486;51.010;10.366;2024-02-04T09:13:48;98620.31;;;6.34;88.96
14790;BME280;7486;51.010;10.366;2024-02-04T09:16:37;98618.69;;;6.25;89.16
14790;BME280;7486;51.010;10.366;2024-02-04T09:19:24;98618.50;;;6.34;88.45
14790;BME280;7486;51.010;10.366;2024-02-04T09:22:10;98609.63;;;6.35;87.98
14790;BME280;7486;51.010;10.366;2024-02-04T09:24:55;98617.50;;;6.43;88.19
14790;BME280;7486;51.010;10.366;2024-02-04T09:27:40;98624.72;;;6.41;87.26
14790;BME280;7486;51.010;10.366;2024-02-04T09:30:26;98617.19;;;6.30;87.43
14790;BME280;7486;51.010;10.366;2024-02-04T09:33:13;98612.41;;;6.34;87.67
14790;BME280;7486;51.010;10.366;2024-02-04T09:35:59;98609.34;;;6.14;88.74
14790;BME280;7486;51.010;10.366;2024-02-04T09:38:45;98601.81;;;6.03;88.99
14790;BME280;7486;51.010;10.366;2024-02-04T09:41:31;98623.47;;;6.21;89.00
14790;BME280;7486;51.010;10.366;2024-02-04T09:44:17;98574.09;;;5.92;89.25
14790;BME280;7486;51.010;10.366;2024-02-04T09:47:03;98604.69;;;6.32;88.28
14790;BME280;7486;51.010;10.366;2024-02-04T09:49:49;98599.97;;;6.19;88.73
14790;BME280;7486;51.010;10.366;2024-02-04T09:52:39;98566.97;;;6.01;89.01
14790;BME280;7486;51.010;10.366;2024-02-04T09:55:26;98607.25;;;6.01;90.02
14790;BME280;7486;51.010;10.366;2024-02-04T09:58:12;98608.06;;;6.02;91.46
14790;BME280;7486;51.010;10.366;2024-02-04T10:01:00;98600.88;;;5.88;93.22
14790;BME280;7486;51.010;10.366;2024-02-04T10:03:49;98610.72;;;5.94;94.35
14790;BME280;7486;51.010;10.366;2024-02-04T10:06:34;98620.69;;;6.06;94.64
14790;BME280;7486;51.010;10.366;2024-02-04T10:09:20;98632.38;;;6.04;94.98
14790;BME280;7486;51.010;10.366;2024-02-04T10:12:06;98621.91;;;5.96;96.52
14790;BME280;7486;51.010;10.366;2024-02-04T10:14:52;98621.03;;;6.03;96.66
14790;BME280;7486;51.010;10.366;2024-02-04T10:17:42;98620.88;;;6.05;96.02
14790;BME280;7486;51.010;10.366;2024-02-04T10:20:27;98621.91;;;5.88;97.05
14790;BME280;7486;51.010;10.366;2024-02-04T10:23:14;98622.22;;;5.85;98.69
14790;BME280;7486;51.010;10.366;2024-02-04T10:26:00;98616.97;;;5.85;98.58
14790;BME280;7486;51.010;10.366;2024-02-04T10:28:51;98595.28;;;5.91;98.75
14790;BME280;7486;51.010;10.366;2024-02-04T10:31:37;98602.34;;;5.82;99.51
14790;BME280;7486;51.010;10.366;2024-02-04T10:34:27;98589.41;;;5.64;100.00
14790;BME280;7486;51.010;10.366;2024-02-04T10:37:13;98604.81;;;5.76;100.00
14790;BME280;7486;51.010;10.366;2024-02-04T10:39:58;98595.44;;;5.81;100.00
14790;BME280;7486;51.010;10.366;2024-02-04T10:42:44;98591.09;;;6.20;98.91
14790;BME280;7486;51.010;10.366;2024-02-04T10:45:32;98600.13;;;6.18;98.00
14790;BME280;7486;51.010;10.366;2024-02-04T10:48:21;98581.09;;;6.08;98.50
14790;BME280;7486;51.010;10.366;2024-02-04T10:51:14;98549.47;;;5.69;100.00
14790;BME280;7486;51.010;10.366;2024-02-04T10:54:02;98572.94;;;5.87;100.00
14790;BME280;7486;51.010;10.366;2024-02-04T10:56:55;98574.56;;;5.96;100.00
14790;BME280;7486;51.010;10.366;2024-02-04T10:59:42;98555.84;;;5.83;100.00
14790;BME280;7486;51.010;10.366;2024-02-04T11:02:29;98558.94;;;5.94;100.00
14790;BME280;7486;51.010;10.366;2024-02-04T11:05:15;98536.34;;;5.61;100.00
14790;BME280;7486;51.010;10.366;2024-02-04T11:08:03;98557.88;;;5.64;100.00
14790;BME280;7486;51.010;10.366;2024-02-04T11:10:50;98540.44;;;5.72;100.00
14790;BME280;7486;51.010;10.366;2024-02-04T11:13:37;98538.75;;;5.95;100.00
14790;BME280;7486;51.010;10.366;2024-02-04T11:24:05;98538.16;;;5.60;100.00
14790;BME280;7486;51.010;10.366;2024-02-04T11:26:46;98532.75;;;5.46;100.00
14790;BME280;7486;51.010;10.366;2024-02-04T11:29:32;98535.19;;;5.55;100.00
14790;BME280;7486;51.010;10.366;2024-02-04T11:32:19;98538.81;;;5.54;100.00
14790;BME280;7486;51.010;10.366;2024-02-04T11:35:07;98487.44;;;5.36;100.00
14790;BME280;7486;51.010;10.366;2024-02-04T11:37:54;98537.81;;;5.72;100.00
14790;BME280;7486;51.010;10.366;2024-02-04T11:40:45;98534.69;;;5.60;100.00
14790;BME280;7486;51.010;10.366;2024-02-04T11:43:35;98538.16;;;5.60;100.00
14790;BME280;7486;51.010;10.366;2024-02-04T11:46:28;98539.31;;;5.50;100.00
14790;BME280;7486;51.010;10.366;2024-02-04T11:49:18;98535.53;;;5.52;100.00
14790;BME280;7486;51.010;10.366;2024-02-04T11:52:05;98535.03;;;5.57;100.00
14790;BME280;7486;51.010;10.366;2024-02-04T11:54:52;98534.38;;;5.71;100.00
14790;BME280;7486;51.010;10.366;2024-02-04T11:57:40;98531.25;;;5.67;100.00
14790;BME280;7486;51.010;10.366;2024-02-04T12:00:27;98542.25;;;5.71;100.00
14790;BME280;7486;51.010;10.366;2024-02-04T12:03:13;98527.78;;;5.75;100.00
14790;BME280;7486;51.010;10.366;2024-02-04T12:06:06;98538.13;;;5.85;100.00
14790;BME280;7486;51.010;10.366;2024-02-04T12:08:55;98531.91;;;5.53;100.00
14790;BME280;7486;51.010;10.366;2024-02-04T12:11:43;98529.94;;;5.55;100.00
14790;BME280;7486;51.010;10.366;2024-02-04T12:14:31;98531.75;;;5.63;100.00
14790;BME280;7486;51.010;10.366;2024-02-04T12:17:23;98528.97;;;5.64;100.00
14790;BME280;7486;51.010;10.366;2024-02-04T12:20:16;98537.47;;;5.58;100.00
14790;BME280;7486;51.010;10.366;2024-02-04T12:23:03;98528.56;;;5.84;100.00
14790;BME280;7486;51.010;10.366;2024-02-04T12:25:56;98522.97;;;5.87;100.00
14790;BME280;7486;51.010;10.366;2024-02-04T12:28:50;98509.91;;;5.62;100.00
14790;BME280;7486;51.010;10.366;2024-02-04T12:31:36;98522.06;;;5.55;100.00
14790;BME280;7486;51.010;10.366;2024-02-04T12:34:27;98510.50;;;5.81;100.00
14790;BME280;7486;51.010;10.366;2024-02-04T12:37:14;98507.34;;;6.01;100.00
14790;BME280;7486;51.010;10.366;2024-02-04T12:40:08;98513.59;;;6.31;100.00
14790;BME280;7486;51.010;10.366;2024-02-04T12:42:56;98509.31;;;6.38;100.00
14790;BME280;7486;51.010;10.366;2024-02-04T12:45:55;98498.97;;;6.67;100.00
14790;BME280;7486;51.010;10.366;2024-02-04T12:48:51;98490.47;;;6.57;100.00
14790;BME280;7486;51.010;10.366;2024-02-04T12:51:38;98491.03;;;6.76;98.76
14790;BME280;7486;51.010;10.366;2024-02-04T12:54:23;98490.19;;;6.75;98.04
14790;BME280;7486;51.010;10.366;2024-02-04T12:57:09;98460.25;;;6.45;97.22
14790;BME280;7486;51.010;10.366;2024-02-04T13:00:04;98495.56;;;6.82;97.61
14790;BME280;7486;51.010;10.366;2024-02-04T13:02:50;98483.59;;;6.79;96.21
14790;BME280;7486;51.010;10.366;2024-02-04T13:05:36;98458.81;;;6.65;94.56
14790;BME280;7486;51.010;10.366;2024-02-04T13:08:22;98490.97;;;6.84;94.99
14790;BME280;7486;51.010;10.366;2024-02-04T13:11:08;98445.47;;;6.44;95.26
14790;BME280;7486;51.010;10.366;2024-02-04T13:13:53;98492.91;;;6.90;94.02
14790;BME280;7486;51.010;10.366;2024-02-04T13:16:39;98498.09;;;6.75;94.94
14790;BME280;7486;51.010;10.366;2024-02-04T13:19:24;98502.31;;;6.53;96.20
14790;BME280;7486;51.010;10.366;2024-02-04T13:22:10;98499.38;;;6.48;97.52
14790;BME280;7486;51.010;10.366;2024-02-04T13:24:56;98493.28;;;6.48;96.95
14790;BME280;7486;51.010;10.366;2024-02-04T13:27:42;98471.41;;;6.47;97.01
14790;BME280;7486;51.010;10.366;2024-02-04T13:30:28;98494.69;;;6.36;98.41
14790;BME280;7486;51.010;10.366;2024-02-04T13:33:13;98486.78;;;6.36;98.86
14790;BME280;7486;51.010;10.366;2024-02-04T13:35:59;98489.78;;;6.33;99.35
14790;BME280;7486;51.010;10.366;2024-02-04T13:38:46;98499.16;;;6.27;99.91
14790;BME280;7486;51.010;10.366;2024-02-04T13:41:32;98433.19;;;6.06;99.71
14790;BME280;7486;51.010;10.366;2024-02-04T13:44:18;98481.81;;;6.41;99.31
14790;BME280;7486;51.010;10.366;2024-02-04T13:47:03;98486.88;;;6.50;99.49
14790;BME280;7486;51.010;10.366;2024-02-04T13:49:49;98493.69;;;6.67;97.70
14790;BME280;7486;51.010;10.366;2024-02-04T13:52:35;98481.16;;;6.69;97.43
14790;BME280;7486;51.010;10.366;2024-02-04T13:55:20;98474.72;;;6.80;97.08
14790;BME280;7486;51.010;10.366;2024-02-04T13:58:06;98480.84;;;6.73;97.41
14790;BME280;7486;51.010;10.366;2024-02-04T14:00:52;98480.00;;;6.72;97.88
14790;BME280;7486;51.010;10.366;2024-02-04T14:03:37;98469.50;;;6.72;96.80
14790;BME280;7486;51.010;10.366;2024-02-04T14:06:23;98434.69;;;6.31;97.21
14790;BME280;7486;51.010;10.366;2024-02-04T14:09:08;98407.41;;;6.32;97.19
14790;BME280;7486;51.010;10.366;2024-02-04T14:11:53;98470.97;;;6.66;96.21
14790;BME280;7486;51.010;10.366;2024-02-04T14:14:39;98456.16;;;6.74;96.71
14790;BME280;7486;51.010;10.366;2024-02-04T14:17:25;98451.31;;;6.54;97.09
14790;BME280;7486;51.010;10.366;2024-02-04T14:20:10;98451.19;;;6.48;97.72
14790;BME280;7486;51.010;10.366;2024-02-04T14:22:56;98459.88;;;6.56;98.34
14790;BME280;7486;51.010;10.366;2024-02-04T14:25:42;98461.59;;;6.72;97.24
14790;BME280;7486;51.010;10.366;2024-02-04T14:28:27;98450.22;;;6.72;96.81
14790;BME280;7486;51.010;10.366;2024-02-04T14:31:13;98425.13;;;6.38;97.27
14790;BME280;7486;51.010;10.366;2024-02-04T14:33:59;98440.97;;;6.53;97.75
14790;BME280;7486;51.010;10.366;2024-02-04T14:36:45;98447.63;;;6.41;99.17
14790;BME280;7486;51.010;10.366;2024-02-04T14:39:31;98446.34;;;6.59;99.35
14790;BME280;7486;51.010;10.366;2024-02-04T14:42:17;98420.09;;;6.51;98.60
14790;BME280;7486;51.010;10.366;2024-02-04T14:45:03;98442.03;;;6.66;97.71
14790;BME280;7486;51.010;10.366;2024-02-04T14:47:49;98434.50;;;6.63;97.37
14790;BME280;7486;51.010;10.366;2024-02-04T14:50:34;98445.13;;;6.70;97.87
14790;BME280;7486;51.010;10.366;2024-02-04T14:53:20;98435.25;;;6.49;98.74
14790;BME280;7486;51.010;10.366;2024-02-04T14:56:05;98438.63;;;6.58;98.15
14790;BME280;7486;51.010;10.366;2024-02-04T14:58:51;98444.56;;;6.29;100.00
14790;BME280;7486;51.010;10.366;2024-02-04T15:01:37;98437.56;;;6.44;100.00